createdAt,value
2018-01-11T00:00:46.116Z,6.66
2018-01-11T00:03:15.039Z,6.55
2018-01-11T00:05:45.660Z,6.17
2018-01-11T00:08:13.445Z,6.31
2018-01-11T00:10:42.202Z,6.67
2018-01-11T00:13:11.506Z,6.34
2018-01-11T00:15:41.226Z,6.42
2018-01-11T00:18:13.247Z,6.47
2018-01-11T00:20:42.046Z,6.41
2018-01-11T00:23:12.180Z,6.39
2018-01-11T00:25:40.215Z,6.45
2018-01-11T00:28:08.594Z,6.28
2018-01-11T00:30:37.588Z,6.42
2018-01-11T00:33:05.376Z,6.69
2018-01-11T00:35:33.347Z,6.52
2018-01-11T00:38:00.979Z,6.65
2018-01-11T00:40:28.903Z,6.27
2018-01-11T00:42:56.870Z,6.16
2018-01-11T00:45:24.446Z,6.47
2018-01-11T00:47:52.012Z,6.36
2018-01-11T00:50:19.938Z,6.49
2018-01-11T00:52:47.654Z,6.73
2018-01-11T00:55:15.223Z,6.90
2018-01-11T00:57:42.801Z,6.89
2018-01-11T01:00:10.570Z,6.47
2018-01-11T01:02:38.183Z,6.31
2018-01-11T01:05:05.762Z,6.54
2018-01-11T01:07:34.249Z,6.33
2018-01-11T01:10:01.871Z,6.78
2018-01-11T01:12:29.407Z,6.46
2018-01-11T01:14:57.278Z,6.86
2018-01-11T01:17:24.836Z,6.64
2018-01-11T01:19:52.408Z,6.29
2018-01-11T01:22:21.365Z,6.55
2018-01-11T01:24:49.147Z,6.17
2018-01-11T01:27:16.744Z,6.33
2018-01-11T01:29:44.573Z,6.49
2018-01-11T01:32:12.439Z,6.42
2018-01-11T01:34:40.196Z,6.41
2018-01-11T01:37:07.746Z,6.40
2018-01-11T01:39:35.545Z,6.47
2018-01-11T01:42:03.335Z,6.88
2018-01-11T01:44:30.925Z,6.77
2018-01-11T01:46:58.531Z,6.93
2018-01-11T01:49:26.281Z,6.83
2018-01-11T01:51:54.059Z,6.61
2018-01-11T01:54:21.676Z,6.79
2018-01-11T01:56:49.679Z,6.68
2018-01-11T01:59:17.295Z,6.52
2018-01-11T02:01:44.925Z,6.64
2018-01-11T02:04:12.532Z,6.38
2018-01-11T02:06:40.080Z,6.35
2018-01-11T02:09:07.682Z,6.39
2018-01-11T02:11:35.413Z,6.45
2018-01-11T02:14:03.176Z,6.24
2018-01-11T02:16:30.775Z,6.40
2018-01-11T02:18:58.537Z,6.30
2018-01-11T02:21:26.117Z,6.40
2018-01-11T02:23:53.728Z,6.41
2018-01-11T02:26:21.330Z,6.62
2018-01-11T02:28:50.236Z,6.74
2018-01-11T02:31:17.835Z,6.40
2018-01-11T02:33:45.390Z,6.69
2018-01-11T02:36:12.917Z,6.75
2018-01-11T02:38:40.522Z,6.48
2018-01-11T02:41:08.431Z,6.53
2018-01-11T02:43:35.974Z,6.57
2018-01-11T02:46:03.571Z,6.38
2018-01-11T02:48:31.675Z,6.44
2018-01-11T02:50:59.268Z,6.26
2018-01-11T02:53:27.006Z,6.50
2018-01-11T02:55:54.560Z,6.53
2018-01-11T02:58:22.159Z,6.56
2018-01-11T03:00:49.754Z,6.72
2018-01-11T03:03:17.318Z,6.89
2018-01-11T03:05:45.139Z,6.45
2018-01-11T03:08:12.748Z,6.68
2018-01-11T03:10:40.311Z,6.78
2018-01-11T03:13:07.862Z,6.55
2018-01-11T03:15:35.485Z,6.63
2018-01-11T03:18:03.311Z,6.81
2018-01-11T03:20:31.205Z,6.88
2018-01-11T03:22:59.762Z,7.09
2018-01-11T03:25:27.416Z,6.89
2018-01-11T03:27:55.028Z,7.07
2018-01-11T03:30:22.926Z,7.26
2018-01-11T03:32:50.735Z,6.87
2018-01-11T03:35:18.483Z,7.06
2018-01-11T03:37:46.098Z,7.03
2018-01-11T03:40:13.694Z,7.16
2018-01-11T03:42:41.294Z,6.76
2018-01-11T03:45:08.911Z,7.01
2018-01-11T03:47:36.675Z,7.19
2018-01-11T03:50:04.216Z,7.40
2018-01-11T03:52:31.798Z,7.35
2018-01-11T03:54:59.481Z,7.61
2018-01-11T03:57:27.125Z,7.16
2018-01-11T03:59:54.820Z,7.37
2018-01-11T04:02:22.425Z,6.81
2018-01-11T04:04:54.090Z,7.05
2018-01-11T04:07:22.103Z,6.99
2018-01-11T04:09:50.829Z,7.21
2018-01-11T04:12:22.698Z,7.37
2018-01-11T04:14:51.227Z,7.55
2018-01-11T04:17:21.686Z,7.23
2018-01-11T04:19:49.588Z,6.80
2018-01-11T04:22:17.662Z,7.15
2018-01-11T04:24:46.234Z,6.62
2018-01-11T04:27:13.996Z,6.96
2018-01-11T04:29:41.659Z,7.17
2018-01-11T04:32:09.520Z,7.34
2018-01-11T04:34:37.700Z,7.34
2018-01-11T04:37:05.514Z,7.28
2018-01-11T04:39:33.507Z,7.31
2018-01-11T04:42:02.019Z,7.52
2018-01-11T04:44:30.869Z,6.59
2018-01-11T04:46:58.707Z,7.15
2018-01-11T04:49:26.399Z,6.77
2018-01-11T04:51:54.061Z,7.01
2018-01-11T04:54:21.796Z,7.01
2018-01-11T04:56:49.689Z,6.67
2018-01-11T04:59:17.301Z,6.30
2018-01-11T05:01:46.059Z,6.35
2018-01-11T05:04:14.872Z,6.30
2018-01-11T05:06:42.506Z,6.66
2018-01-11T05:09:10.528Z,6.40
2018-01-11T05:11:38.306Z,6.62
2018-01-11T05:14:06.152Z,6.59
2018-01-11T05:16:34.300Z,6.47
2018-01-11T05:19:01.891Z,6.55
2018-01-11T05:21:29.600Z,6.63
2018-01-11T05:23:57.232Z,6.53
2018-01-11T05:26:25.026Z,6.34
2018-01-11T05:28:53.165Z,6.48
2018-01-11T05:31:20.759Z,6.31
2018-01-11T05:33:48.602Z,5.73
2018-01-11T05:36:16.935Z,6.06
2018-01-11T05:38:44.514Z,5.97
2018-01-11T05:41:12.097Z,5.87
2018-01-11T05:43:39.683Z,5.99
2018-01-11T05:46:07.457Z,7.14
2018-01-11T05:48:35.052Z,7.73
2018-01-11T05:51:02.639Z,7.88
2018-01-11T05:53:30.350Z,7.78
2018-01-11T05:55:57.943Z,7.55
2018-01-11T05:58:25.588Z,7.52
2018-01-11T06:00:53.183Z,7.43
2018-01-11T06:03:20.730Z,7.34
2018-01-11T06:05:48.291Z,7.74
2018-01-11T06:08:15.950Z,7.54
2018-01-11T06:10:43.749Z,7.18
2018-01-11T06:13:11.307Z,7.42
2018-01-11T06:15:38.949Z,7.35
2018-01-11T06:18:07.486Z,7.46
2018-01-11T06:20:35.105Z,7.47
2018-01-11T06:23:02.706Z,7.73
2018-01-11T06:25:30.308Z,7.88
2018-01-11T06:27:57.895Z,7.84
2018-01-11T06:30:25.492Z,7.26
2018-01-11T06:32:53.078Z,7.59
2018-01-11T06:35:20.667Z,7.72
2018-01-11T06:37:48.360Z,8.24
2018-01-11T06:40:15.901Z,8.68
2018-01-11T06:42:44.134Z,8.74
2018-01-11T06:45:11.758Z,8.90
2018-01-11T06:47:39.409Z,8.87
2018-01-11T06:50:06.958Z,8.89
2018-01-11T06:52:34.581Z,8.85
2018-01-11T06:55:02.504Z,8.57
2018-01-11T06:57:30.055Z,8.70
2018-01-11T06:59:57.776Z,8.72
2018-01-11T07:02:25.454Z,9.00
2018-01-11T07:04:53.222Z,8.88
2018-01-11T07:07:20.975Z,8.58
2018-01-11T07:09:48.564Z,8.81
2018-01-11T07:12:16.194Z,8.74
2018-01-11T07:14:43.955Z,9.04
2018-01-11T07:17:11.640Z,8.64
2018-01-11T07:19:39.222Z,8.08
2018-01-11T07:22:06.990Z,8.28
2018-01-11T07:24:34.614Z,8.25
2018-01-11T07:27:02.178Z,8.03
2018-01-11T07:29:29.781Z,8.32
2018-01-11T07:31:58.375Z,8.05
2018-01-11T07:34:26.039Z,8.21
2018-01-11T07:36:53.802Z,7.97
2018-01-11T07:39:21.422Z,7.75
2018-01-11T07:41:48.982Z,8.53
2018-01-11T07:44:16.550Z,8.17
2018-01-11T07:46:44.153Z,8.24
2018-01-11T07:49:11.722Z,8.15
2018-01-11T07:51:39.323Z,8.22
2018-01-11T07:54:06.906Z,8.28
2018-01-11T07:56:34.446Z,8.21
2018-01-11T07:59:02.010Z,8.52
2018-01-11T08:01:29.734Z,8.16
2018-01-11T08:03:57.522Z,7.98
2018-01-11T08:06:25.274Z,8.18
2018-01-11T08:08:52.908Z,8.20
2018-01-11T08:11:20.512Z,8.49
2018-01-11T08:13:48.107Z,8.29
2018-01-11T08:16:15.726Z,7.64
2018-01-11T08:18:43.495Z,7.79
2018-01-11T08:21:11.141Z,8.19
2018-01-11T08:23:38.797Z,7.34
2018-01-11T08:26:06.399Z,7.60
2018-01-11T08:28:33.955Z,7.98
2018-01-11T08:31:01.578Z,7.94
2018-01-11T08:33:29.827Z,8.00
2018-01-11T08:35:57.458Z,8.18
2018-01-11T08:38:25.070Z,7.60
2018-01-11T08:40:52.641Z,7.95
2018-01-11T08:43:20.234Z,8.24
2018-01-11T08:45:47.841Z,8.38
2018-01-11T08:48:15.450Z,8.18
2018-01-11T08:50:43.033Z,8.22
2018-01-11T08:53:10.625Z,8.08
2018-01-11T08:55:38.193Z,7.97
2018-01-11T08:58:05.762Z,7.79
2018-01-11T09:00:33.452Z,8.31
2018-01-11T09:03:01.047Z,8.50
2018-01-11T09:05:28.615Z,8.44
2018-01-11T09:07:56.189Z,8.62
2018-01-11T09:10:23.725Z,8.67
2018-01-11T09:12:51.259Z,8.50
2018-01-11T09:15:18.880Z,8.49
2018-01-11T09:17:46.450Z,8.74
2018-01-11T09:20:14.021Z,8.71
2018-01-11T09:22:41.611Z,8.81
2018-01-11T09:25:09.912Z,8.65
2018-01-11T09:27:38.492Z,8.54
2018-01-11T09:30:06.939Z,8.44
2018-01-11T09:32:35.070Z,8.84
2018-01-11T09:35:02.620Z,8.78
2018-01-11T09:37:30.230Z,8.88
2018-01-11T09:39:57.796Z,8.68
2018-01-11T09:42:25.370Z,8.73
2018-01-11T09:44:52.993Z,8.49
2018-01-11T09:47:20.864Z,8.75
2018-01-11T09:49:48.470Z,8.58
2018-01-11T09:52:16.043Z,8.50
2018-01-11T09:54:43.614Z,8.50
2018-01-11T09:57:11.263Z,8.20
2018-01-11T09:59:38.942Z,8.52
2018-01-11T10:02:06.548Z,8.25
2018-01-11T10:04:34.327Z,8.40
2018-01-11T10:07:01.883Z,8.14
2018-01-11T10:09:29.515Z,8.16
2018-01-11T10:11:57.082Z,8.63
2018-01-11T10:14:24.622Z,8.62
2018-01-11T10:16:52.296Z,8.50
2018-01-11T10:19:19.866Z,8.39
2018-01-11T10:21:47.519Z,8.36
2018-01-11T10:24:15.222Z,8.68
2018-01-11T10:26:43.023Z,8.67
2018-01-11T10:29:10.821Z,8.53
2018-01-11T10:31:39.214Z,8.27
2018-01-11T10:34:06.811Z,8.09
2018-01-11T10:36:34.372Z,8.32
2018-01-11T10:39:01.987Z,8.44
2018-01-11T10:41:29.618Z,8.30
2018-01-11T10:43:57.182Z,8.38
2018-01-11T10:46:24.905Z,8.41
2018-01-11T10:48:52.487Z,8.45
2018-01-11T10:51:20.076Z,8.40
2018-01-11T10:53:47.958Z,8.27
2018-01-11T10:56:15.912Z,8.20
2018-01-11T10:58:43.554Z,8.36
2018-01-11T11:01:16.800Z,8.40
2018-01-11T11:03:44.583Z,8.34
2018-01-11T11:06:12.222Z,8.66
2018-01-11T11:08:39.952Z,8.70
2018-01-11T11:11:07.546Z,8.79
2018-01-11T11:13:35.104Z,8.86
2018-01-11T11:16:02.784Z,8.83
2018-01-11T11:18:30.334Z,8.62
2018-01-11T11:20:57.980Z,8.74
2018-01-11T11:23:25.684Z,8.50
2018-01-11T11:25:53.288Z,8.66
2018-01-11T11:28:20.955Z,8.70
2018-01-11T11:30:48.620Z,8.26
2018-01-11T11:33:16.156Z,8.60
2018-01-11T11:35:43.761Z,7.95
2018-01-11T11:38:11.391Z,7.99
2018-01-11T11:40:38.962Z,8.67
2018-01-11T11:43:06.565Z,8.41
2018-01-11T11:45:34.143Z,8.38
2018-01-11T11:48:01.702Z,8.74
2018-01-11T11:50:29.255Z,8.47
2018-01-11T11:52:56.858Z,8.45
2018-01-11T11:55:24.668Z,8.81
2018-01-11T11:57:52.483Z,8.98
2018-01-11T12:00:20.148Z,9.09
2018-01-11T12:02:48.419Z,9.22
2018-01-11T12:05:15.985Z,8.92
2018-01-11T12:07:43.637Z,9.03
2018-01-11T12:10:11.410Z,8.93
2018-01-11T12:15:07.650Z,9.26
2018-01-11T12:17:35.293Z,9.38
2018-01-11T12:20:02.960Z,9.49
2018-01-11T12:22:31.089Z,9.17
2018-01-11T12:25:00.182Z,9.55
2018-01-11T12:27:28.078Z,9.40
2018-01-11T12:29:55.764Z,8.94
2018-01-11T12:32:23.367Z,8.67
2018-01-11T12:34:50.961Z,8.88
2018-01-11T12:37:18.502Z,9.07
2018-01-11T12:39:46.075Z,8.94
2018-01-11T12:42:13.837Z,8.43
2018-01-11T12:44:41.381Z,8.47
2018-01-11T12:47:09.055Z,8.76
2018-01-11T12:49:36.681Z,8.70
2018-01-11T12:52:04.233Z,8.79
2018-01-11T12:54:31.915Z,8.83
2018-01-11T12:56:59.538Z,8.90
2018-01-11T12:59:27.130Z,8.80
2018-01-11T13:01:54.851Z,8.56
2018-01-11T13:04:22.621Z,8.98
2018-01-11T13:06:50.229Z,8.88
2018-01-11T13:09:17.918Z,8.96
2018-01-11T13:11:45.478Z,8.70
2018-01-11T13:14:13.277Z,9.13
2018-01-11T13:16:40.930Z,8.90
2018-01-11T13:19:09.275Z,8.92
2018-01-11T13:21:37.385Z,8.87
2018-01-11T13:24:05.151Z,8.75
2018-01-11T13:26:32.756Z,9.04
2018-01-11T13:29:00.657Z,9.03
2018-01-11T13:31:28.260Z,8.80
2018-01-11T13:33:56.441Z,9.03
2018-01-11T13:36:24.065Z,8.88
2018-01-11T13:38:51.857Z,8.88
2018-01-11T13:41:20.338Z,8.99
2018-01-11T13:43:49.017Z,8.97
2018-01-11T13:46:16.656Z,9.15
2018-01-11T13:48:44.274Z,9.26
2018-01-11T13:51:11.890Z,9.06
2018-01-11T13:53:39.858Z,8.79
2018-01-11T13:56:07.408Z,8.97
2018-01-11T13:58:34.949Z,8.41
2018-01-11T14:01:02.589Z,8.39
2018-01-11T14:03:30.224Z,8.83
2018-01-11T14:05:57.790Z,9.00
2018-01-11T14:08:25.378Z,8.96
2018-01-11T14:10:53.113Z,8.94
2018-01-11T14:13:20.692Z,8.85
2018-01-11T14:15:48.341Z,8.95
2018-01-11T14:18:15.908Z,9.01
2018-01-11T14:20:43.474Z,8.49
2018-01-11T14:23:11.077Z,8.71
2018-01-11T14:25:38.706Z,8.76
2018-01-11T14:28:06.633Z,8.98
2018-01-11T14:30:34.280Z,9.14
2018-01-11T14:33:01.899Z,8.72
2018-01-11T14:35:29.541Z,8.57
2018-01-11T14:37:57.212Z,8.68
2018-01-11T14:40:24.862Z,8.63
2018-01-11T14:42:53.234Z,8.83
2018-01-11T14:45:21.482Z,8.71
2018-01-11T14:47:49.245Z,9.00
2018-01-11T14:50:16.873Z,8.90
2018-01-11T14:52:45.098Z,8.83
2018-01-11T14:55:12.854Z,8.81
2018-01-11T14:57:42.716Z,9.20
2018-01-11T15:00:10.438Z,9.24
2018-01-11T15:02:38.024Z,9.15
2018-01-11T15:05:05.657Z,9.04
2018-01-11T15:07:33.480Z,9.05
2018-01-11T15:10:01.673Z,9.21
2018-01-11T15:12:29.431Z,9.08
2018-01-11T15:14:57.142Z,9.19
2018-01-11T15:17:24.719Z,9.28
2018-01-11T15:19:52.313Z,9.35
2018-01-11T15:22:20.045Z,9.12
2018-01-11T15:24:47.638Z,9.15
2018-01-11T15:27:15.262Z,9.20
2018-01-11T15:29:43.710Z,9.07
2018-01-11T15:32:11.396Z,9.04
2018-01-11T15:34:38.999Z,8.98
2018-01-11T15:37:07.478Z,9.05
2018-01-11T15:39:35.142Z,8.90
2018-01-11T15:42:03.693Z,9.01
2018-01-11T15:44:31.250Z,9.06
2018-01-11T15:46:58.857Z,9.13
2018-01-11T15:49:26.714Z,9.15
2018-01-11T15:51:55.309Z,8.93
2018-01-11T15:54:23.061Z,8.95
2018-01-11T15:56:50.732Z,9.10
2018-01-11T15:59:19.292Z,8.89
2018-01-11T16:01:47.056Z,9.04
2018-01-11T16:04:14.843Z,9.10
2018-01-11T16:06:42.500Z,8.77
2018-01-11T16:09:10.212Z,8.73
2018-01-11T16:11:37.911Z,9.03
2018-01-11T16:14:05.622Z,8.94
2018-01-11T16:16:33.342Z,8.74
2018-01-11T16:19:01.381Z,9.21
2018-01-11T16:21:29.238Z,9.30
2018-01-11T16:23:56.895Z,9.58
2018-01-11T16:26:24.866Z,9.51
2018-01-11T16:28:53.092Z,9.33
2018-01-11T16:31:20.800Z,9.14
2018-01-11T16:33:48.407Z,9.31
2018-01-11T16:36:16.384Z,9.24
2018-01-11T16:38:44.572Z,9.07
2018-01-11T16:41:12.198Z,9.07
2018-01-11T16:43:39.891Z,9.11
2018-01-11T16:46:07.527Z,9.11
2018-01-11T16:52:01.127Z,9.09
2018-01-11T16:54:28.765Z,9.10
2018-01-11T16:56:56.434Z,9.04
2018-01-11T16:59:24.578Z,8.82
2018-01-11T17:01:52.286Z,9.12
2018-01-11T17:04:20.178Z,9.25
2018-01-11T17:06:47.812Z,8.86
2018-01-11T17:09:16.035Z,9.11
2018-01-11T17:11:43.636Z,8.63
2018-01-11T17:14:11.375Z,9.06
2018-01-11T17:16:39.048Z,9.04
2018-01-11T17:19:06.764Z,9.17
2018-01-11T17:21:34.393Z,9.05
2018-01-11T17:24:02.064Z,9.04
2018-01-11T17:26:29.773Z,8.92
2018-01-11T17:28:59.374Z,9.03
2018-01-11T17:31:27.285Z,9.06
2018-01-11T17:33:55.411Z,8.76
2018-01-11T17:36:23.043Z,8.69
2018-01-11T17:38:52.024Z,8.93
2018-01-11T17:41:19.676Z,8.86
2018-01-11T17:43:47.375Z,8.62
2018-01-11T17:46:15.676Z,8.82
2018-01-11T17:48:43.503Z,8.95
2018-01-11T17:51:11.806Z,9.13
2018-01-11T17:53:39.628Z,9.08
2018-01-11T17:56:07.270Z,8.87
2018-01-11T17:58:34.811Z,8.74
2018-01-11T18:01:03.241Z,8.66
2018-01-11T18:03:30.901Z,8.77
2018-01-11T18:05:58.467Z,8.72
2018-01-11T18:08:26.920Z,8.78
2018-01-11T18:10:54.527Z,8.72
2018-01-11T18:13:22.160Z,8.50
2018-01-11T18:15:50.011Z,9.02
2018-01-11T18:18:17.930Z,8.66
2018-01-11T18:20:46.074Z,8.67
2018-01-11T18:23:13.875Z,8.56
2018-01-11T18:25:42.652Z,8.55
2018-01-11T18:28:10.772Z,8.59
2018-01-11T18:30:38.644Z,8.58
2018-01-11T18:33:06.251Z,8.44
2018-01-11T18:35:33.944Z,8.37
2018-01-11T18:38:01.676Z,8.25
2018-01-11T18:40:29.481Z,8.59
2018-01-11T18:42:57.066Z,8.90
2018-01-11T18:45:24.697Z,8.88
2018-01-11T18:47:52.347Z,9.01
2018-01-11T18:50:19.906Z,9.02
2018-01-11T18:52:47.590Z,9.00
2018-01-11T18:55:15.190Z,8.71
2018-01-11T18:57:42.905Z,8.60
2018-01-11T19:00:11.806Z,8.83
2018-01-11T19:02:40.241Z,8.92
2018-01-11T19:05:07.985Z,8.52
2018-01-11T19:07:35.723Z,8.52
2018-01-11T19:10:03.388Z,8.46
2018-01-11T19:12:31.062Z,8.44
2018-01-11T19:15:00.039Z,8.51
2018-01-11T19:17:28.480Z,8.43
2018-01-11T19:19:56.060Z,8.65
2018-01-11T19:22:23.712Z,8.64
2018-01-11T19:24:51.583Z,8.53
2018-01-11T19:27:19.180Z,8.30
2018-01-11T19:29:47.662Z,8.37
2018-01-11T19:32:16.708Z,8.19
2018-01-11T19:34:44.346Z,8.28
2018-01-11T19:37:11.979Z,8.10
2018-01-11T19:39:39.613Z,8.24
2018-01-11T19:42:07.915Z,8.25
2018-01-11T19:44:35.541Z,8.30
2018-01-11T19:47:03.158Z,8.31
2018-01-11T19:49:31.584Z,7.99
2018-01-11T19:51:59.748Z,8.03
2018-01-11T19:54:28.007Z,8.16
2018-01-11T19:56:57.374Z,8.70
2018-01-11T19:59:25.012Z,8.37
2018-01-11T20:01:52.583Z,8.20
2018-01-11T20:04:20.222Z,7.63
2018-01-11T20:06:47.804Z,8.69
2018-01-11T20:09:16.289Z,8.64
2018-01-11T20:11:43.923Z,8.27
2018-01-11T20:14:11.509Z,8.07
2018-01-11T20:16:40.150Z,8.26
2018-01-11T20:19:07.883Z,8.62
2018-01-11T20:21:35.433Z,8.53
2018-01-11T20:24:03.056Z,8.25
2018-01-11T20:26:30.623Z,8.54
2018-01-11T20:28:58.316Z,8.18
2018-01-11T20:31:26.327Z,8.48
2018-01-11T20:33:53.938Z,8.75
2018-01-11T20:36:22.444Z,8.69
2018-01-11T20:38:51.128Z,8.63
2018-01-11T20:41:18.705Z,8.72
2018-01-11T20:43:47.062Z,8.79
2018-01-11T20:46:14.634Z,8.35
2018-01-11T20:48:42.901Z,8.13
2018-01-11T20:51:10.667Z,8.14
2018-01-11T20:53:38.384Z,7.90
2018-01-11T20:56:05.979Z,8.02
2018-01-11T20:58:33.630Z,8.39
2018-01-11T21:01:01.908Z,8.24
2018-01-11T21:03:29.676Z,8.34
2018-01-11T21:05:57.264Z,7.86
2018-01-11T21:08:25.235Z,7.82
2018-01-11T21:10:52.998Z,8.14
2018-01-11T21:13:20.601Z,8.03
2018-01-11T21:15:48.437Z,8.20
2018-01-11T21:18:16.779Z,8.19
2018-01-11T21:20:44.588Z,8.05
2018-01-11T21:23:12.185Z,8.24
2018-01-11T21:25:39.949Z,8.29
2018-01-11T21:28:07.488Z,8.26
2018-01-11T21:30:35.132Z,8.40
2018-01-11T21:33:03.405Z,8.16
2018-01-11T21:35:31.004Z,8.10
2018-01-11T21:37:58.619Z,8.27
2018-01-11T21:40:26.224Z,8.04
2018-01-11T21:42:53.791Z,8.08
2018-01-11T21:45:21.425Z,8.08
2018-01-11T21:47:49.061Z,8.08
2018-01-11T21:50:16.645Z,7.94
2018-01-11T21:52:44.247Z,8.15
2018-01-11T21:55:11.832Z,8.07
2018-01-11T21:57:39.466Z,8.37
2018-01-11T22:00:07.883Z,8.14
2018-01-11T22:02:35.453Z,8.43
2018-01-11T22:05:03.199Z,8.04
2018-01-11T22:07:30.820Z,8.21
2018-01-11T22:09:58.354Z,8.24
2018-01-11T22:12:25.931Z,8.52
2018-01-11T22:14:53.588Z,8.28
2018-01-11T22:17:21.504Z,8.16
2018-01-11T22:19:49.100Z,8.42
2018-01-11T22:22:16.696Z,8.34
2018-01-11T22:24:44.472Z,8.23
2018-01-11T22:27:12.060Z,8.24
2018-01-11T22:29:39.636Z,8.19
2018-01-11T22:32:07.284Z,8.09
2018-01-11T22:34:35.097Z,7.89
2018-01-11T22:37:02.854Z,8.11
2018-01-11T22:39:30.426Z,8.01
2018-01-11T22:41:58.205Z,8.17
2018-01-11T22:44:25.786Z,8.04
2018-01-11T22:46:53.374Z,8.24
2018-01-11T22:49:21.259Z,8.20
2018-01-11T22:51:48.742Z,8.16
2018-01-11T22:54:16.329Z,7.95
2018-01-11T22:56:43.897Z,7.90
2018-01-11T22:59:11.479Z,7.99
2018-01-11T23:01:39.365Z,8.08
2018-01-11T23:04:06.929Z,7.97
2018-01-11T23:06:34.504Z,7.81
2018-01-11T23:09:02.287Z,7.94
2018-01-11T23:11:35.374Z,7.59
2018-01-11T23:14:02.936Z,7.38
2018-01-11T23:16:30.472Z,7.58
2018-01-11T23:18:58.335Z,7.96
2018-01-11T23:21:26.440Z,7.88
2018-01-11T23:23:54.205Z,7.66
2018-01-11T23:26:21.764Z,7.81
2018-01-11T23:28:49.483Z,7.79
2018-01-11T23:31:17.080Z,7.79
2018-01-11T23:33:44.859Z,7.74
2018-01-11T23:36:12.616Z,7.79
2018-01-11T23:38:40.256Z,7.57
2018-01-11T23:41:07.865Z,7.58
2018-01-11T23:43:35.897Z,7.73
2018-01-11T23:46:03.468Z,7.84
2018-01-11T23:48:31.253Z,7.75
2018-01-11T23:50:58.939Z,7.19
2018-01-11T23:53:26.528Z,7.35
2018-01-11T23:55:54.319Z,7.67
2018-01-11T23:58:22.217Z,7.55
